Portada
METAR-TAF:

METAR-TAF

Aeroports :

Tulcea, Romania

latitud: 45-11N, longitud: 028-49E, altitud: 4 m

Observació

L'informe es va fer fa 37 minuts, a les 00:30 UTC
Vent 7 kt del Nord
Temperatura 2°C
Humitat 87%
Pressió 1033 hPa
Visibilitat: 9000 m

METAR: LRTC 020030Z AUTO 35007KT 9000 BKN036/// OVC041/// 02/M00 Q1033

Hora: 03:07 (01:07 UTC)

Pronòstic

L'informe es va fer fa 11 hores i 7 minuts, a les 14:00 UTC
Pronòstic vàlid del 01 a les 15 UTC al 02 a les 00 UTC
Vent 10 kt del Nord
Visibilitat 10 km o més
Cel ennuvolat a una alçada de 2000 ft
Evolucionant progressivament
l' 01 a les 21 UTC al 01 a les 23 UTC
Vent 4 kt amb direcció variable

TAF: LRTC 011400Z 0115/0200 36010KT 9999 BKN020 BECMG 0121/0123 VRB04KT

Observacions i pronòstics meteorològics de més de 4000 aeroports (METAR i TAF).

Les estacions disponibles són els punts grocs i vermells al mapa.

Posi el ratolí al punt desitjat per veure el nom de l'estació.

Feu clic per veure les observacions i els pronòstics meteorològics.

Per canviar el mapa: feu clic els botons verds amb una creu de color negre per apropar; al botó verd amb un guió per allunyar la imatge; o en les fletxes verdes per a mapes adjacents.


METAR-TAF: